Time;durP1;ratioP1;P1;durP2;ratioP2;P2;SDS_P1;SDS_P2;PMS_P1;PMS_P2;Temp;Humidity;BMP_temperature;BMP_pressure;BME280_temperature;BME280_humidity;BME280_pressure;Samples;Min_cycle;Max_cycle;Signal;HPM_P1;HPM_P2
2022/06/19 00:02:41;;;;;;;4.57;3.28;;;17.60;99.90;;;;;;5160784;28;20042;-58
2022/06/19 00:05:14;;;;;;;3.58;2.85;;;17.50;99.90;;;;;;5172063;28;20230;-60
2022/06/19 00:07:51;;;;;;;2.43;2.23;;;17.40;99.90;;;;;;5193853;28;20030;-59
2022/06/19 00:10:22;;;;;;;4.20;3.20;;;17.30;99.90;;;;;;5176034;28;20484;-59
2022/06/19 00:12:57;;;;;;;4.00;2.58;;;17.20;99.90;;;;;;5210581;28;20038;-59
2022/06/19 00:15:31;;;;;;;3.13;2.75;;;17.10;99.90;;;;;;5214811;28;20032;-58
2022/06/19 00:18:05;;;;;;;2.85;2.45;;;17.10;99.90;;;;;;5197823;28;20059;-59
2022/06/19 00:20:42;;;;;;;3.70;3.40;;;17.10;99.90;;;;;;5213135;28;20310;-60
2022/06/19 00:23:20;;;;;;;4.57;2.92;;;17.00;99.90;;;;;;5196904;28;20041;-58
2022/06/19 00:25:53;;;;;;;2.67;2.42;;;17.00;99.90;;;;;;5213525;28;20026;-58
2022/06/19 00:28:31;;;;;;;3.47;3.17;;;16.90;99.90;;;;;;5214571;28;20052;-58
2022/06/19 00:31:05;;;;;;;2.85;2.55;;;16.90;99.90;;;;;;5213306;28;20050;-59
2022/06/19 00:33:36;;;;;;;4.80;3.08;;;16.80;99.90;;;;;;5197402;28;20041;-59
2022/06/19 00:36:08;;;;;;;3.63;3.10;;;16.80;99.90;;;;;;5196998;28;20041;-59
2022/06/19 00:38:39;;;;;;;3.22;3.00;;;16.80;99.90;;;;;;5163768;28;20037;-59
2022/06/19 00:41:13;;;;;;;2.65;2.40;;;16.80;99.90;;;;;;5214100;28;20044;-59
2022/06/19 00:44:08;;;;;;;3.00;2.70;;;16.70;99.90;;;;;;5214216;28;20076;-59
2022/06/19 00:47:14;;;;;;;4.05;2.83;;;16.60;99.90;;;;;;5214921;28;20323;-59
2022/06/19 00:49:53;;;;;;;3.40;2.75;;;16.60;99.90;;;;;;5211964;28;20320;-59
2022/06/19 00:52:38;;;;;;;3.92;3.05;;;16.50;99.90;;;;;;5198043;28;20030;-58
2022/06/19 00:55:22;;;;;;;;;;;16.50;99.90;;;;;;5197099;28;20026;-59
2022/06/19 00:58:13;;;;;;;3.65;2.60;;;16.40;99.90;;;;;;5197103;28;19910;-59
2022/06/19 01:00:50;;;;;;;3.63;3.00;;;16.40;99.90;;;;;;5213520;28;20036;-58
2022/06/19 01:03:41;;;;;;;3.38;2.95;;;16.30;99.90;;;;;;5213527;28;20341;-59
2022/06/19 01:06:15;;;;;;;3.88;2.95;;;16.30;99.90;;;;;;5201913;28;20080;-59
2022/06/19 01:08:49;;;;;;;3.70;2.55;;;16.30;99.90;;;;;;5211883;28;20040;-58
2022/06/19 01:11:25;;;;;;;;;;;16.30;99.90;;;;;;5213942;28;20033;-60
2022/06/19 01:13:59;;;;;;;;;;;16.20;99.90;;;;;;5181694;28;19909;-58
2022/06/19 01:16:37;;;;;;;3.67;2.80;;;16.20;99.90;;;;;;5213648;28;20094;-58
2022/06/19 01:19:16;;;;;;;4.00;3.05;;;16.20;99.90;;;;;;5197592;28;20460;-58
2022/06/19 01:22:28;;;;;;;6.88;3.20;;;16.20;99.90;;;;;;5212300;28;20042;-58
2022/06/19 01:25:14;;;;;;;3.60;3.05;;;16.10;99.90;;;;;;5212611;28;20332;-58
2022/06/19 01:30:53;;;;;;;3.53;2.92;;;16.00;99.90;;;;;;5210389;28;20042;-60
2022/06/19 01:33:33;;;;;;;3.50;3.03;;;16.00;99.90;;;;;;5210942;28;20032;-59
2022/06/19 01:36:12;;;;;;;4.18;3.00;;;16.00;99.90;;;;;;5212208;28;20038;-58
2022/06/19 01:38:49;;;;;;;6.70;2.95;;;15.90;99.90;;;;;;5213233;28;20036;-58
2022/06/19 01:41:34;;;;;;;2.75;2.55;;;15.90;99.90;;;;;;5212378;28;20040;-58
2022/06/19 01:44:14;;;;;;;4.25;3.15;;;15.80;99.90;;;;;;5197318;28;20206;-60
2022/06/19 01:46:54;;;;;;;3.13;2.65;;;15.80;99.90;;;;;;5213179;28;20206;-58
2022/06/19 01:49:29;;;;;;;3.55;2.85;;;15.80;99.90;;;;;;5212962;28;20042;-58
2022/06/19 01:53:00;;;;;;;5.03;2.70;;;15.80;99.90;;;;;;5210060;28;20032;-59
2022/06/19 01:55:32;;;;;;;3.50;3.00;;;15.80;99.90;;;;;;5197839;28;20033;-58
2022/06/19 01:58:15;;;;;;;4.95;3.60;;;15.80;99.90;;;;;;5213146;28;20026;-58
2022/06/19 02:00:53;;;;;;;5.43;3.40;;;15.80;99.90;;;;;;5211852;28;20042;-60
2022/06/19 02:03:47;;;;;;;3.88;3.42;;;15.70;99.90;;;;;;5213725;28;20042;-60
2022/06/19 02:06:26;;;;;;;6.45;3.13;;;15.60;99.90;;;;;;5214021;28;20214;-60
2022/06/19 02:09:08;;;;;;;2.85;2.55;;;15.60;99.90;;;;;;5210594;28;20034;-57
2022/06/19 02:11:47;;;;;;;3.08;2.70;;;15.60;99.90;;;;;;5212185;28;20037;-59
2022/06/19 02:14:23;;;;;;;3.13;2.83;;;15.60;99.90;;;;;;5212515;28;20036;-59
2022/06/19 02:16:59;;;;;;;4.53;3.20;;;15.60;99.90;;;;;;5213501;28;20183;-60
2022/06/19 02:19:33;;;;;;;2.80;2.60;;;15.60;99.90;;;;;;5212575;28;20045;-58
2022/06/19 02:22:13;;;;;;;3.50;2.78;;;15.60;99.90;;;;;;5212258;28;20037;-58
2022/06/19 02:24:47;;;;;;;3.75;3.30;;;15.60;99.90;;;;;;5214038;28;20056;-58
2022/06/19 02:27:24;;;;;;;5.05;3.78;;;15.60;99.90;;;;;;5217189;28;20042;-58
2022/06/19 02:30:03;;;;;;;3.10;2.38;;;15.60;99.90;;;;;;5216868;28;20059;-58
2022/06/19 02:32:51;;;;;;;4.82;3.35;;;15.50;99.90;;;;;;5215064;28;20025;-59
2022/06/19 02:35:25;;;;;;;3.88;3.08;;;15.50;99.90;;;;;;5216674;28;20063;-64
2022/06/19 02:38:07;;;;;;;3.50;3.20;;;15.40;99.90;;;;;;5215869;28;20036;-59
2022/06/19 02:40:56;;;;;;;4.18;3.13;;;15.30;99.90;;;;;;5216369;28;20038;-59
2022/06/19 02:43:35;;;;;;;3.35;3.00;;;15.30;99.90;;;;;;5200700;28;20034;-61
2022/06/19 02:46:11;;;;;;;4.10;3.05;;;15.30;99.90;;;;;;5200425;28;20036;-58
2022/06/19 02:48:46;;;;;;;4.30;3.20;;;15.20;99.90;;;;;;5203921;28;20038;-58
2022/06/19 02:51:20;;;;;;;4.35;2.97;;;15.20;99.90;;;;;;5219462;28;20030;-58
2022/06/19 02:53:52;;;;;;;3.65;2.90;;;15.10;99.90;;;;;;5217103;28;20037;-59
2022/06/19 02:56:23;;;;;;;3.45;2.92;;;15.10;99.90;;;;;;5217015;28;20040;-60
2022/06/19 02:58:55;;;;;;;3.65;3.35;;;15.00;99.90;;;;;;5216152;28;20037;-59
2022/06/19 03:01:30;;;;;;;3.85;3.10;;;15.00;99.90;;;;;;5199018;28;20322;-59
2022/06/19 03:04:01;;;;;;;3.85;3.42;;;15.00;99.90;;;;;;5215370;28;20041;-59
2022/06/19 03:06:35;;;;;;;2.75;2.55;;;15.00;99.90;;;;;;5206953;28;20045;-59
2022/06/19 03:09:06;;;;;;;3.60;3.23;;;14.90;99.90;;;;;;5199272;28;20227;-59
2022/06/19 03:11:43;;;;;;;3.17;2.88;;;14.90;99.90;;;;;;5200829;28;20279;-58
2022/06/19 03:14:15;;;;;;;3.70;3.33;;;14.90;99.90;;;;;;5216742;28;20040;-59
2022/06/19 03:16:50;;;;;;;6.93;3.97;;;15.00;99.90;;;;;;5216126;28;20048;-59
2022/06/19 03:19:24;;;;;;;4.22;3.42;;;15.00;99.90;;;;;;5198835;28;20225;-59
2022/06/19 03:21:58;;;;;;;;;;;15.00;99.90;;;;;;5215754;28;20040;-58
2022/06/19 03:24:29;;;;;;;3.15;2.78;;;15.10;99.90;;;;;;5215341;28;19909;-58
2022/06/19 03:27:02;;;;;;;5.40;3.67;;;15.10;99.90;;;;;;5215063;28;20211;-59
2022/06/19 03:29:41;;;;;;;4.72;3.70;;;15.20;99.90;;;;;;5215788;28;20025;-59
2022/06/19 03:32:16;;;;;;;4.47;3.38;;;15.30;99.90;;;;;;5199614;28;20038;-59
2022/06/19 03:34:47;;;;;;;3.72;3.03;;;15.40;99.90;;;;;;5215107;28;20052;-59
2022/06/19 03:37:21;;;;;;;4.25;3.53;;;15.60;99.90;;;;;;5212710;28;20048;-60
2022/06/19 03:39:53;;;;;;;;;;;15.70;99.90;;;;;;5214891;28;20328;-60
2022/06/19 03:42:27;;;;;;;3.78;3.33;;;15.90;99.90;;;;;;5215855;28;19909;-60
2022/06/19 03:45:01;;;;;;;2.95;2.67;;;16.10;99.90;;;;;;5197407;28;20029;-60
2022/06/19 03:47:32;;;;;;;3.40;3.08;;;16.30;99.90;;;;;;5198500;28;20042;-61
2022/06/19 03:50:07;;;;;;;3.13;2.80;;;16.40;99.90;;;;;;5196892;28;20036;-60
2022/06/19 03:52:42;;;;;;;4.07;3.00;;;16.60;99.90;;;;;;5212291;28;20040;-61
2022/06/19 03:55:15;;;;;;;4.68;3.45;;;16.80;99.90;;;;;;5215109;28;20219;-61
2022/06/19 03:57:47;;;;;;;3.67;3.38;;;17.00;99.90;;;;;;5197910;28;20044;-60
2022/06/19 04:00:19;;;;;;;4.03;3.40;;;17.10;99.90;;;;;;5199677;28;20234;-62
2022/06/19 04:02:56;;;;;;;3.90;2.70;;;17.10;99.90;;;;;;5214681;28;20218;-61
2022/06/19 04:05:27;;;;;;;3.42;2.92;;;17.20;99.90;;;;;;5207806;28;20041;-60
2022/06/19 04:08:00;;;;;;;4.05;2.97;;;17.30;99.90;;;;;;5196456;28;20037;-62
2022/06/19 04:10:42;;;;;;;4.60;4.00;;;17.30;99.90;;;;;;5214115;28;20029;-61
2022/06/19 04:13:16;;;;;;;3.20;2.70;;;17.60;99.90;;;;;;5197649;28;20049;-60
2022/06/19 04:15:47;;;;;;;5.60;3.50;;;17.80;99.90;;;;;;5214419;28;20222;-60
2022/06/19 04:18:20;;;;;;;4.05;3.22;;;17.90;99.90;;;;;;5199715;28;20277;-60
2022/06/19 04:20:56;;;;;;;3.17;2.80;;;18.00;99.90;;;;;;5198429;28;20029;-60
2022/06/19 04:23:28;;;;;;;3.85;2.90;;;18.00;99.90;;;;;;5214471;28;20044;-60
2022/06/19 04:26:01;;;;;;;2.97;2.50;;;18.20;99.90;;;;;;5214747;28;20047;-60
2022/06/19 04:28:35;;;;;;;6.80;2.58;;;18.40;99.90;;;;;;5214469;28;20328;-61
2022/06/19 04:31:07;;;;;;;4.95;2.78;;;18.60;99.90;;;;;;5196690;28;20035;-60
2022/06/19 04:33:39;;;;;;;3.38;3.05;;;18.90;99.90;;;;;;5197978;28;20215;-61
2022/06/19 04:36:18;;;;;;;5.90;2.78;;;19.00;99.90;;;;;;5214318;28;20353;-60
2022/06/19 04:38:56;;;;;;;3.55;3.25;;;19.30;99.90;;;;;;5213420;28;20044;-60
2022/06/19 04:41:36;;;;;;;8.80;4.63;;;19.50;99.90;;;;;;5211936;28;20056;-62
2022/06/19 04:44:14;;;;;;;2.83;2.58;;;19.80;99.90;;;;;;5213354;28;20055;-61
2022/06/19 04:46:50;;;;;;;7.47;2.55;;;20.10;99.90;;;;;;5198602;28;20048;-61
2022/06/19 04:49:26;;;;;;;5.93;2.42;;;20.50;99.90;;;;;;5214122;28;20044;-61
2022/06/19 04:52:00;;;;;;;3.70;2.90;;;20.80;99.90;;;;;;5209887;28;20033;-61
2022/06/19 04:54:39;;;;;;;;;;;21.10;99.90;;;;;;5197935;28;20043;-60
2022/06/19 04:57:15;;;;;;;3.60;2.72;;;21.30;99.90;;;;;;5209783;28;19932;-60
2022/06/19 04:59:49;;;;;;;3.47;3.05;;;21.50;99.90;;;;;;5196690;28;20025;-62
2022/06/19 05:02:23;;;;;;;4.15;3.30;;;21.60;99.90;;;;;;5212597;28;20038;-60
2022/06/19 05:04:56;;;;;;;5.78;3.25;;;21.60;99.90;;;;;;5186938;28;20322;-61
2022/06/19 05:07:30;;;;;;;3.83;2.97;;;21.60;99.90;;;;;;5176216;28;20218;-61
2022/06/19 05:10:10;;;;;;;3.00;2.58;;;21.90;99.90;;;;;;5192370;28;20050;-61
2022/06/19 05:12:42;;;;;;;2.45;2.20;;;22.30;99.90;;;;;;5190934;28;20250;-63
2022/06/19 05:15:14;;;;;;;2.92;2.22;;;22.70;99.90;;;;;;5191274;28;20042;-60
2022/06/19 05:17:45;;;;;;;2.78;2.58;;;23.00;99.90;;;;;;5176875;28;20249;-60
2022/06/19 05:20:17;;;;;;;2.58;2.38;;;23.00;99.90;;;;;;5191322;28;20048;-60
2022/06/19 05:22:51;;;;;;;3.25;2.60;;;23.30;99.90;;;;;;5192991;28;20065;-61
2022/06/19 05:25:23;;;;;;;3.85;2.17;;;23.20;99.90;;;;;;5192557;28;20038;-60
2022/06/19 05:27:54;;;;;;;2.58;2.10;;;23.30;99.90;;;;;;5192938;28;20204;-60
2022/06/19 05:30:29;;;;;;;2.67;2.00;;;23.40;99.90;;;;;;5195924;28;20318;-61
2022/06/19 05:33:00;;;;;;;5.55;2.42;;;23.60;99.90;;;;;;5192793;28;20333;-61
2022/06/19 05:35:38;;;;;;;4.30;2.22;;;23.40;99.90;;;;;;5176084;28;20034;-60
2022/06/19 05:38:18;;;;;;;2.33;2.05;;;23.30;99.90;;;;;;5193570;28;20201;-60
2022/06/19 05:40:51;;;;;;;2.58;2.28;;;23.10;99.90;;;;;;5178426;28;20048;-60
2022/06/19 05:43:28;;;;;;;2.13;1.90;;;23.10;99.90;;;;;;5193024;28;20034;-60
2022/06/19 05:46:10;;;;;;;2.00;1.80;;;23.20;99.90;;;;;;5193029;28;20038;-60
2022/06/19 05:48:43;;;;;;;2.22;2.03;;;23.40;99.90;;;;;;5143307;28;20042;-61
2022/06/19 05:51:19;;;;;;;2.05;1.85;;;23.80;99.90;;;;;;5170580;28;20041;-61
2022/06/19 05:53:56;;;;;;;1.85;1.75;;;24.10;99.90;;;;;;5161247;28;20023;-61
2022/06/19 05:56:31;;;;;;;2.33;2.03;;;24.30;99.90;;;;;;5118467;28;20533;-62
2022/06/19 05:59:03;;;;;;;2.60;2.35;;;24.60;99.90;;;;;;5169771;28;20030;-60
2022/06/19 06:01:37;;;;;;;2.20;2.00;;;24.50;99.90;;;;;;5157527;28;20258;-61
2022/06/19 06:04:09;;;;;;;1.80;1.67;;;24.40;99.90;;;;;;5159065;28;20281;-60
2022/06/19 06:06:41;;;;;;;6.13;2.40;;;24.50;99.90;;;;;;5137917;28;20056;-61
2022/06/19 06:09:15;;;;;;;1.90;1.80;;;25.00;99.90;;;;;;5179225;28;20034;-61
2022/06/19 06:11:49;;;;;;;4.20;1.55;;;25.50;99.90;;;;;;5178910;28;20030;-60
2022/06/19 06:14:21;;;;;;;2.90;1.85;;;25.70;99.90;;;;;;5181188;28;20048;-62
2022/06/19 06:16:56;;;;;;;2.08;1.85;;;25.90;99.90;;;;;;5178743;28;20030;-62
2022/06/19 06:19:28;;;;;;;2.03;1.52;;;25.60;99.90;;;;;;5194933;28;20038;-63
2022/06/19 06:22:09;;;;;;;1.80;1.70;;;25.80;99.90;;;;;;5194620;28;20297;-62
2022/06/19 06:24:43;;;;;;;3.13;2.00;;;26.00;99.90;;;;;;5193838;28;20034;-62
2022/06/19 06:27:17;;;;;;;2.22;1.75;;;26.30;99.90;;;;;;5193850;28;20044;-62
2022/06/19 06:29:54;;;;;;;1.77;1.63;;;26.60;99.90;;;;;;5194533;28;20042;-62
2022/06/19 06:32:28;;;;;;;1.80;1.42;;;27.10;99.90;;;;;;5195250;28;20506;-61
2022/06/19 06:35:02;;;;;;;1.70;1.60;;;27.00;99.90;;;;;;5196409;28;20041;-62
2022/06/19 06:37:34;;;;;;;1.90;1.80;;;27.30;99.90;;;;;;5180252;28;20045;-63
2022/06/19 06:40:12;;;;;;;1.42;1.33;;;27.30;99.90;;;;;;5194953;28;20030;-62
2022/06/19 06:42:48;;;;;;;2.83;1.50;;;27.70;99.90;;;;;;5194567;28;20227;-62
2022/06/19 06:45:22;;;;;;;1.88;1.73;;;28.20;99.90;;;;;;5192968;28;20026;-62
2022/06/19 06:47:56;;;;;;;1.65;1.55;;;28.30;99.90;;;;;;5195027;28;20040;-62
2022/06/19 06:50:30;;;;;;;;;;;28.40;99.90;;;;;;5195262;28;20238;-62
2022/06/19 06:53:04;;;;;;;1.55;1.45;;;28.40;99.90;;;;;;5178957;28;19913;-60
2022/06/19 06:55:45;;;;;;;3.05;1.55;;;27.00;99.90;;;;;;5194875;28;20041;-62
2022/06/19 06:58:24;;;;;;;2.00;1.55;;;26.80;99.90;;;;;;5194194;28;20038;-62
2022/06/19 07:01:05;;;;;;;2.55;1.60;;;26.80;99.90;;;;;;5178608;28;20035;-61
2022/06/19 07:03:39;;;;;;;1.83;1.60;;;27.80;99.90;;;;;;5193507;28;20029;-61
2022/06/19 07:06:13;;;;;;;2.35;1.55;;;28.10;99.90;;;;;;5171916;28;20313;-61
2022/06/19 07:08:47;;;;;;;1.60;1.50;;;28.60;99.90;;;;;;5170567;28;20033;-61
2022/06/19 07:11:42;;;;;;;2.75;1.38;;;28.40;99.90;;;;;;5194534;28;20033;-62
2022/06/19 07:14:16;;;;;;;1.73;1.48;;;28.30;99.90;;;;;;5177814;28;20137;-61
2022/06/19 07:16:50;;;;;;;1.70;1.60;;;28.00;99.90;;;;;;5153926;28;20030;-62
2022/06/19 07:19:25;;;;;;;1.65;1.42;;;27.90;99.90;;;;;;5188368;28;20038;-61
2022/06/19 07:21:59;;;;;;;1.40;1.30;;;27.70;99.90;;;;;;5173705;28;20036;-63
2022/06/19 07:24:38;;;;;;;2.90;2.60;;;27.80;99.90;;;;;;5173877;28;20045;-62
2022/06/19 07:27:13;;;;;;;1.52;1.42;;;27.70;99.90;;;;;;5190005;28;20069;-62
2022/06/19 07:29:52;;;;;;;3.63;1.80;;;28.40;99.90;;;;;;5173000;28;20373;-63
2022/06/19 07:32:27;;;;;;;1.40;1.30;;;28.50;99.90;;;;;;5190426;28;20042;-63
2022/06/19 07:35:01;;;;;;;1.52;1.42;;;29.30;99.90;;;;;;5173120;28;20033;-60
2022/06/19 07:37:32;;;;;;;1.55;1.45;;;29.10;99.90;;;;;;5160771;28;20032;-63
2022/06/19 07:40:09;;;;;;;1.30;1.20;;;29.20;99.90;;;;;;5194657;28;20022;-62
2022/06/19 07:42:42;;;;;;;2.55;1.50;;;29.30;99.90;;;;;;5182137;28;20187;-63
2022/06/19 07:45:15;;;;;;;1.20;1.10;;;29.60;99.90;;;;;;5159616;28;20102;-62
2022/06/19 07:50:55;;;;;;;;;;;29.80;99.90;;;;;;5159563;28;20030;-61
2022/06/19 07:53:31;;;;;;;1.73;1.10;;;30.10;99.90;;;;;;5170914;28;19916;-62
2022/06/19 07:56:07;;;;;;;1.70;1.27;;;29.80;99.90;;;;;;5194127;28;20041;-64
2022/06/19 07:58:40;;;;;;;1.25;1.10;;;29.70;99.90;;;;;;5177749;28;20040;-62
2022/06/19 08:01:18;;;;;;;1.10;1.00;;;29.60;99.90;;;;;;5161341;28;20056;-61
2022/06/19 08:03:49;;;;;;;1.73;1.05;;;29.80;99.90;;;;;;5170416;28;20028;-62
2022/06/19 08:06:21;;;;;;;1.40;1.20;;;30.00;99.90;;;;;;5174873;28;20042;-61
2022/06/19 08:08:52;;;;;;;1.15;1.05;;;30.50;99.90;;;;;;5156857;28;20026;-62
2022/06/19 08:11:26;;;;;;;1.30;1.20;;;30.50;99.90;;;;;;5152300;28;20028;-63
2022/06/19 08:14:02;;;;;;;1.00;1.00;;;30.50;99.90;;;;;;5155541;28;20273;-62
2022/06/19 08:16:34;;;;;;;1.02;0.98;;;31.00;99.90;;;;;;5162269;28;20056;-61
2022/06/19 08:19:09;;;;;;;1.13;1.00;;;30.70;99.90;;;;;;5184365;28;20342;-62
2022/06/19 08:21:46;;;;;;;1.20;1.10;;;30.80;99.90;;;;;;5153848;28;20247;-60
2022/06/19 08:24:18;;;;;;;4.47;1.30;;;30.50;99.90;;;;;;5178954;28;20049;-64
2022/06/19 08:26:50;;;;;;;1.10;1.00;;;30.80;99.90;;;;;;5179980;28;20089;-61
2022/06/19 08:29:26;;;;;;;1.80;1.15;;;30.70;99.90;;;;;;5159737;28;20048;-62
2022/06/19 08:31:59;;;;;;;1.20;1.10;;;30.40;99.90;;;;;;5176318;28;20238;-63
2022/06/19 08:34:31;;;;;;;2.05;1.10;;;30.50;99.90;;;;;;5160993;28;20028;-61
2022/06/19 08:37:06;;;;;;;1.75;1.27;;;30.30;99.90;;;;;;5156468;28;20042;-63
2022/06/19 08:39:39;;;;;;;1.20;1.10;;;30.70;99.90;;;;;;5177224;28;20042;-62
2022/06/19 08:42:24;;;;;;;1.65;1.27;;;30.70;99.90;;;;;;5173289;28;20276;-61
2022/06/19 08:44:58;;;;;;;2.00;1.52;;;30.20;99.90;;;;;;5136282;28;20060;-61
2022/06/19 08:48:14;;;;;;;1.75;1.00;;;30.60;99.90;;;;;;5136570;28;20061;-60
2022/06/19 08:51:13;;;;;;;1.63;1.25;;;30.20;99.90;;;;;;5136810;28;20034;-62
2022/06/19 08:54:11;;;;;;;1.15;1.10;;;30.50;99.90;;;;;;5181917;28;20029;-62
2022/06/19 08:57:21;;;;;;;1.98;1.15;;;30.30;99.90;;;;;;5164919;28;20250;-62
2022/06/19 09:00:19;;;;;;;2.70;1.25;;;30.60;99.90;;;;;;5146677;28;20274;-62
2022/06/19 09:03:09;;;;;;;1.00;1.00;;;30.60;99.90;;;;;;5189770;28;20211;-62
2022/06/19 09:06:01;;;;;;;1.15;1.00;;;30.70;99.90;;;;;;5158205;28;20297;-61
2022/06/19 09:08:55;;;;;;;1.15;1.15;;;30.70;99.90;;;;;;5119272;28;20246;-63
2022/06/19 09:12:06;;;;;;;1.83;1.25;;;30.70;99.90;;;;;;5156070;28;20218;-61
2022/06/19 09:14:58;;;;;;;3.10;1.90;;;30.70;99.90;;;;;;5173273;28;20034;-62
2022/06/19 09:17:42;;;;;;;0.90;0.90;;;30.80;99.90;;;;;;5171766;28;20026;-61
2022/06/19 09:20:40;;;;;;;2.53;1.05;;;30.90;99.90;;;;;;5174550;28;20037;-61
2022/06/19 09:23:35;;;;;;;1.35;1.25;;;31.20;99.90;;;;;;5172928;28;20040;-62
2022/06/19 09:26:16;;;;;;;;;;;31.30;99.90;;;;;;5181604;28;20049;-61
2022/06/19 09:29:15;;;;;;;1.17;1.08;;;31.00;99.90;;;;;;5189833;28;19916;-61
2022/06/19 09:32:10;;;;;;;2.03;1.00;;;30.70;99.90;;;;;;5173138;28;20022;-61
2022/06/19 09:35:00;;;;;;;;;;;30.50;99.90;;;;;;5174183;28;20037;-62
2022/06/19 09:37:41;;;;;;;1.58;1.10;;;30.70;99.90;;;;;;5149453;28;20127;-62
2022/06/19 09:40:29;;;;;;;1.92;1.35;;;30.80;99.90;;;;;;5157436;28;20030;-61
2022/06/19 09:43:24;;;;;;;2.75;1.15;;;31.20;99.90;;;;;;5172435;28;20026;-61
2022/06/19 09:46:08;;;;;;;1.10;1.00;;;31.20;99.90;;;;;;5189061;28;20048;-62
2022/06/19 09:48:55;;;;;;;1.40;1.30;;;31.50;99.90;;;;;;5172026;28;20323;-62
2022/06/19 09:51:45;;;;;;;4.70;1.30;;;31.60;99.90;;;;;;5188174;28;20496;-63
2022/06/19 09:54:50;;;;;;;1.38;1.27;;;31.50;99.90;;;;;;5176514;28;20037;-63
2022/06/19 09:57:38;;;;;;;1.23;1.13;;;31.30;99.90;;;;;;5177031;28;20041;-61
2022/06/19 10:00:26;;;;;;;5.55;1.50;;;31.20;99.90;;;;;;5160740;28;20330;-62
2022/06/19 10:03:06;;;;;;;1.48;1.38;;;31.10;99.90;;;;;;5184119;28;20320;-62
2022/06/19 10:05:52;;;;;;;1.55;1.45;;;31.40;99.90;;;;;;5173106;28;20444;-63
2022/06/19 10:08:38;;;;;;;1.25;1.10;;;31.40;99.90;;;;;;5156516;28;20686;-62
2022/06/19 10:11:17;;;;;;;1.35;1.10;;;31.90;99.90;;;;;;5139765;28;20533;-62
2022/06/19 10:14:00;;;;;;;1.58;1.48;;;31.90;99.90;;;;;;5157881;28;20041;-62
2022/06/19 10:16:50;;;;;;;1.73;1.60;;;31.80;99.90;;;;;;5157846;28;20027;-62
2022/06/19 10:20:13;;;;;;;2.33;1.63;;;32.00;99.90;;;;;;5173512;28;20215;-62
2022/06/19 10:23:05;;;;;;;1.65;1.55;;;32.10;99.90;;;;;;5167850;28;20071;-62
2022/06/19 10:26:04;;;;;;;2.83;1.33;;;32.50;99.90;;;;;;5172191;28;20030;-63
2022/06/19 10:29:00;;;;;;;1.60;1.40;;;32.70;99.90;;;;;;5172813;28;20030;-63
2022/06/19 10:31:52;;;;;;;2.35;1.70;;;32.90;99.90;;;;;;5173532;28;20031;-61
2022/06/19 10:35:00;;;;;;;1.60;1.50;;;32.90;99.90;;;;;;5166716;28;20042;-62
2022/06/19 10:37:56;;;;;;;1.60;1.50;;;32.70;99.90;;;;;;5156725;28;20022;-61
2022/06/19 10:40:57;;;;;;;1.50;1.40;;;32.40;99.90;;;;;;5158118;28;20040;-61
2022/06/19 10:44:04;;;;;;;1.52;1.42;;;32.30;99.90;;;;;;5162270;28;20284;-62
2022/06/19 10:46:42;;;;;;;1.70;1.38;;;32.30;99.90;;;;;;5175861;28;20034;-63
2022/06/19 10:49:44;;;;;;;1.70;1.60;;;32.40;99.90;;;;;;5176721;28;20112;-63
2022/06/19 10:52:28;;;;;;;1.63;1.52;;;33.20;99.90;;;;;;5160590;28;20049;-63
2022/06/19 10:55:31;;;;;;;1.60;1.50;;;33.60;99.90;;;;;;5160653;28;20034;-62
2022/06/19 10:58:17;;;;;;;1.40;1.30;;;34.50;99.90;;;;;;5145867;28;20042;-63
2022/06/19 11:00:57;;;;;;;1.40;1.30;;;34.00;99.90;;;;;;5140771;28;20048;-62
2022/06/19 11:07:06;;;;;;;1.45;1.20;;;34.00;99.90;;;;;;5169167;28;20259;-61
2022/06/19 11:09:42;;;;;;;6.88;1.45;;;35.00;99.90;;;;;;5189453;28;20048;-62
2022/06/19 11:12:31;;;;;;;2.05;1.80;;;34.90;99.90;;;;;;5156331;28;20206;-61
2022/06/19 11:15:10;;;;;;;2.28;1.42;;;35.00;99.90;;;;;;5172677;28;20042;-62
2022/06/19 11:17:45;;;;;;;2.05;1.38;;;35.20;99.90;;;;;;5172257;28;20064;-61
2022/06/19 11:20:16;;;;;;;1.63;1.52;;;35.60;99.90;;;;;;5176036;28;20309;-63
2022/06/19 11:22:50;;;;;;;1.95;1.83;;;35.10;99.90;;;;;;5176545;28;20039;-63
2022/06/19 11:25:23;;;;;;;1.50;1.40;;;35.30;99.90;;;;;;5180584;28;20056;-62
2022/06/19 11:28:05;;;;;;;2.20;1.50;;;34.60;99.90;;;;;;5179373;28;20096;-61
2022/06/19 11:30:51;;;;;;;1.58;1.48;;;35.50;99.90;;;;;;5188839;28;20058;-62
2022/06/19 11:33:28;;;;;;;1.48;1.38;;;35.20;99.90;;;;;;5185668;28;20033;-62
2022/06/19 11:36:08;;;;;;;1.58;1.38;;;35.30;99.90;;;;;;5155156;28;20026;-61
2022/06/19 11:38:46;;;;;;;3.50;1.50;;;35.60;99.90;;;;;;5158924;28;20217;-62
2022/06/19 11:41:33;;;;;;;1.95;1.60;;;35.00;99.90;;;;;;5154317;28;20228;-63
2022/06/19 11:44:19;;;;;;;1.50;1.40;;;35.20;99.90;;;;;;5181697;28;20035;-63
2022/06/19 11:46:58;;;;;;;1.48;1.38;;;36.00;99.90;;;;;;5182282;28;20034;-61
2022/06/19 11:49:37;;;;;;;1.95;1.60;;;36.50;99.90;;;;;;5172690;28;20353;-61
2022/06/19 11:52:19;;;;;;;1.75;1.23;;;37.10;99.90;;;;;;5164049;28;20049;-61
2022/06/19 11:54:51;;;;;;;1.33;1.23;;;36.90;99.90;;;;;;5150473;28;20323;-64
2022/06/19 11:57:28;;;;;;;1.38;1.23;;;36.60;99.90;;;;;;5167299;28;20195;-61
2022/06/19 12:00:05;;;;;;;1.60;1.50;;;37.30;99.90;;;;;;5174167;28;20242;-62
2022/06/19 12:02:39;;;;;;;3.95;1.60;;;37.00;99.90;;;;;;5172015;28;20038;-62
2022/06/19 12:05:35;;;;;;;2.00;1.85;;;36.30;99.90;;;;;;5176754;28;20080;-61
2022/06/19 12:08:24;;;;;;;2.55;1.38;;;37.10;99.90;;;;;;5177397;28;20025;-62
2022/06/19 12:11:00;;;;;;;1.48;1.38;;;37.30;99.90;;;;;;5191605;28;20073;-63
2022/06/19 12:13:41;;;;;;;2.05;1.25;;;37.60;99.90;;;;;;5175198;28;20288;-60
2022/06/19 12:16:27;;;;;;;1.85;1.48;;;36.20;99.90;;;;;;5174813;28;20018;-61
2022/06/19 12:19:27;;;;;;;2.80;1.70;;;36.60;99.90;;;;;;5159453;28;20354;-65
2022/06/19 12:22:07;;;;;;;2.05;1.60;;;37.40;99.90;;;;;;5178538;28;20052;-62
2022/06/19 12:25:00;;;;;;;2.92;1.40;;;36.10;99.90;;;;;;5185768;28;20082;-61
2022/06/19 12:27:40;;;;;;;1.60;1.50;;;36.50;99.90;;;;;;5173578;28;20045;-61
2022/06/19 12:30:33;;;;;;;1.38;1.27;;;36.20;99.90;;;;;;5161599;28;20034;-61
2022/06/19 12:33:14;;;;;;;2.92;1.55;;;35.80;99.90;;;;;;5178086;28;20053;-61
2022/06/19 12:35:48;;;;;;;1.75;1.42;;;36.30;99.90;;;;;;5162134;28;20038;-61
2022/06/19 12:38:25;;;;;;;1.60;1.50;;;35.80;99.90;;;;;;5178420;28;20214;-61
2022/06/19 12:41:21;;;;;;;1.98;1.58;;;35.60;99.90;;;;;;5188119;28;20030;-61
2022/06/19 12:44:30;;;;;;;1.50;1.40;;;36.50;99.90;;;;;;5206798;28;20037;-61
2022/06/19 12:47:33;;;;;;;1.70;1.30;;;36.30;99.90;;;;;;5190330;28;20042;-61
2022/06/19 12:50:17;;;;;;;1.63;1.52;;;35.70;99.90;;;;;;5177648;28;20042;-61
2022/06/19 12:53:22;;;;;;;1.88;1.55;;;35.50;99.90;;;;;;5178896;28;20132;-60
2022/06/19 12:56:06;;;;;;;;;;;35.40;99.90;;;;;;5177830;28;20041;-60
2022/06/19 12:59:01;;;;;;;1.60;1.50;;;35.90;99.90;;;;;;5194075;28;20023;-61
2022/06/19 13:01:47;;;;;;;1.55;1.40;;;36.20;99.90;;;;;;5193610;28;20026;-60
2022/06/19 13:04:44;;;;;;;3.47;1.70;;;36.10;99.90;;;;;;5183590;28;20327;-61
2022/06/19 13:07:30;;;;;;;2.17;1.42;;;34.30;99.90;;;;;;5176194;28;20335;-61
2022/06/19 13:10:30;;;;;;;2.72;2.08;;;35.20;99.90;;;;;;5192408;28;20045;-62
2022/06/19 13:13:40;;;;;;;2.20;2.00;;;36.50;99.90;;;;;;5177305;28;20227;-60
2022/06/19 13:16:36;;;;;;;5.50;2.42;;;35.90;99.90;;;;;;5193168;28;20201;-60
2022/06/19 13:19:58;;;;;;;2.50;2.25;;;35.10;99.90;;;;;;5177545;28;20049;-60
2022/06/19 13:23:07;;;;;;;1.65;1.40;;;35.00;99.90;;;;;;5193907;28;20034;-59
2022/06/19 13:26:00;;;;;;;3.90;2.53;;;35.20;99.90;;;;;;5193479;28;20030;-61
2022/06/19 13:29:04;;;;;;;2.08;1.38;;;35.30;99.90;;;;;;5182378;28;20323;-62
2022/06/19 13:31:49;;;;;;;3.78;2.65;;;35.90;99.90;;;;;;5155345;28;20215;-61
2022/06/19 13:35:11;;;;;;;1.60;1.50;;;36.60;99.90;;;;;;5171621;28;20026;-62
2022/06/19 13:38:27;;;;;;;2.55;1.77;;;36.50;99.90;;;;;;5166493;28;20033;-62
2022/06/19 13:41:12;;;;;;;2.00;1.48;;;36.00;99.90;;;;;;5188466;28;20266;-62
2022/06/19 13:44:11;;;;;;;1.83;1.45;;;35.50;99.90;;;;;;5182495;28;20257;-63
2022/06/19 13:46:50;;;;;;;2.17;1.73;;;36.00;99.90;;;;;;5187304;28;20033;-61
2022/06/19 13:49:47;;;;;;;2.60;1.70;;;35.60;99.90;;;;;;5185226;28;20512;-61
2022/06/19 13:52:30;;;;;;;2.08;1.65;;;36.70;99.90;;;;;;5203495;28;20209;-62
2022/06/19 13:55:10;;;;;;;1.80;1.70;;;37.30;99.90;;;;;;5215755;28;20036;-62
2022/06/19 13:58:14;;;;;;;4.70;1.80;;;37.00;99.90;;;;;;5197621;28;20037;-63
2022/06/19 14:01:25;;;;;;;2.53;2.05;;;36.60;99.90;;;;;;5196195;28;20358;-61
2022/06/19 14:07:31;;;;;;;1.65;1.55;;;37.70;99.90;;;;;;5150477;28;20212;-63
2022/06/19 14:10:26;;;;;;;2.38;2.17;;;37.00;99.90;;;;;;5177298;28;20048;-61
2022/06/19 14:13:23;;;;;;;3.45;1.88;;;37.70;99.90;;;;;;5178589;28;20025;-62
2022/06/19 14:16:44;;;;;;;2.58;1.60;;;37.90;99.90;;;;;;5156267;28;20050;-65
2022/06/19 14:19:33;;;;;;;1.67;1.58;;;38.10;99.90;;;;;;5166532;28;20042;-62